sensor_id;sensor_type;location;lat;lon;timestamp;temperature;humidity
18103;DHT22;9178;51.120;6.192;2022-09-09T00:01:49;14.10;99.90
18103;DHT22;9178;51.120;6.192;2022-09-09T00:04:24;14.10;99.90
18103;DHT22;9178;51.120;6.192;2022-09-09T00:07:00;14.00;99.90
18103;DHT22;9178;51.120;6.192;2022-09-09T00:09:34;14.00;99.90
18103;DHT22;9178;51.120;6.192;2022-09-09T00:12:10;14.00;99.90
18103;DHT22;9178;51.120;6.192;2022-09-09T00:14:43;14.00;99.90
18103;DHT22;9178;51.120;6.192;2022-09-09T00:17:14;13.90;99.90
18103;DHT22;9178;51.120;6.192;2022-09-09T00:19:50;13.90;99.90
18103;DHT22;9178;51.120;6.192;2022-09-09T00:22:23;13.90;99.90
18103;DHT22;9178;51.120;6.192;2022-09-09T00:24:53;13.80;99.90
18103;DHT22;9178;51.120;6.192;2022-09-09T00:27:27;13.90;99.90
18103;DHT22;9178;51.120;6.192;2022-09-09T00:30:12;13.80;99.90
18103;DHT22;9178;51.120;6.192;2022-09-09T00:32:40;13.80;99.90
18103;DHT22;9178;51.120;6.192;2022-09-09T00:35:16;13.80;99.90
18103;DHT22;9178;51.120;6.192;2022-09-09T00:37:46;13.80;99.90
18103;DHT22;9178;51.120;6.192;2022-09-09T00:40:23;13.80;99.90
18103;DHT22;9178;51.120;6.192;2022-09-09T00:42:59;13.70;99.90
18103;DHT22;9178;51.120;6.192;2022-09-09T00:45:48;13.70;99.90
18103;DHT22;9178;51.120;6.192;2022-09-09T00:48:22;13.70;99.90
18103;DHT22;9178;51.120;6.192;2022-09-09T00:50:57;13.70;99.90
18103;DHT22;9178;51.120;6.192;2022-09-09T00:53:33;13.70;99.90
18103;DHT22;9178;51.120;6.192;2022-09-09T00:56:12;13.70;99.90
18103;DHT22;9178;51.120;6.192;2022-09-09T00:58:40;13.60;99.90
18103;DHT22;9178;51.120;6.192;2022-09-09T01:01:10;13.60;99.90
18103;DHT22;9178;51.120;6.192;2022-09-09T01:03:44;13.60;99.90
18103;DHT22;9178;51.120;6.192;2022-09-09T01:06:16;13.60;99.90
18103;DHT22;9178;51.120;6.192;2022-09-09T01:08:56;13.60;99.90
18103;DHT22;9178;51.120;6.192;2022-09-09T01:11:32;13.50;99.90
18103;DHT22;9178;51.120;6.192;2022-09-09T01:14:10;13.50;99.90
18103;DHT22;9178;51.120;6.192;2022-09-09T01:16:40;13.50;99.90
18103;DHT22;9178;51.120;6.192;2022-09-09T01:19:10;13.40;99.90
18103;DHT22;9178;51.120;6.192;2022-09-09T01:21:52;13.40;99.90
18103;DHT22;9178;51.120;6.192;2022-09-09T01:24:26;13.40;99.90
18103;DHT22;9178;51.120;6.192;2022-09-09T01:26:56;13.40;99.90
18103;DHT22;9178;51.120;6.192;2022-09-09T01:29:25;13.40;99.90
18103;DHT22;9178;51.120;6.192;2022-09-09T01:31:54;13.30;99.90
18103;DHT22;9178;51.120;6.192;2022-09-09T01:34:22;13.30;99.90
18103;DHT22;9178;51.120;6.192;2022-09-09T01:36:53;13.30;99.90
18103;DHT22;9178;51.120;6.192;2022-09-09T01:39:23;13.30;99.90
18103;DHT22;9178;51.120;6.192;2022-09-09T01:41:49;13.30;99.90
18103;DHT22;9178;51.120;6.192;2022-09-09T01:44:19;13.20;99.90
18103;DHT22;9178;51.120;6.192;2022-09-09T01:46:46;13.30;99.90
18103;DHT22;9178;51.120;6.192;2022-09-09T01:49:13;13.30;99.90
18103;DHT22;9178;51.120;6.192;2022-09-09T01:51:41;13.20;99.90
18103;DHT22;9178;51.120;6.192;2022-09-09T01:54:09;13.20;99.90
18103;DHT22;9178;51.120;6.192;2022-09-09T01:56:43;13.30;99.90
18103;DHT22;9178;51.120;6.192;2022-09-09T01:59:27;13.30;99.90
18103;DHT22;9178;51.120;6.192;2022-09-09T02:02:06;13.20;99.90
18103;DHT22;9178;51.120;6.192;2022-09-09T02:04:38;13.20;99.90
18103;DHT22;9178;51.120;6.192;2022-09-09T02:09:58;13.20;99.90
18103;DHT22;9178;51.120;6.192;2022-09-09T02:12:29;13.20;99.90
18103;DHT22;9178;51.120;6.192;2022-09-09T02:15:03;13.30;99.90
18103;DHT22;9178;51.120;6.192;2022-09-09T02:17:34;13.20;99.90
18103;DHT22;9178;51.120;6.192;2022-09-09T02:20:05;13.30;99.90
18103;DHT22;9178;51.120;6.192;2022-09-09T02:22:35;13.30;99.90
18103;DHT22;9178;51.120;6.192;2022-09-09T02:25:07;13.30;99.90
18103;DHT22;9178;51.120;6.192;2022-09-09T02:27:35;13.30;99.90
18103;DHT22;9178;51.120;6.192;2022-09-09T02:30:04;13.30;99.90
18103;DHT22;9178;51.120;6.192;2022-09-09T02:32:33;13.30;99.90
18103;DHT22;9178;51.120;6.192;2022-09-09T02:35:05;13.40;99.90
18103;DHT22;9178;51.120;6.192;2022-09-09T02:37:37;13.30;99.90
18103;DHT22;9178;51.120;6.192;2022-09-09T02:40:06;13.40;99.90
18103;DHT22;9178;51.120;6.192;2022-09-09T02:42:39;13.40;99.90
18103;DHT22;9178;51.120;6.192;2022-09-09T02:45:09;13.30;99.90
18103;DHT22;9178;51.120;6.192;2022-09-09T02:47:41;13.30;99.90
18103;DHT22;9178;51.120;6.192;2022-09-09T02:50:13;13.40;99.90
18103;DHT22;9178;51.120;6.192;2022-09-09T02:52:54;13.40;99.90
18103;DHT22;9178;51.120;6.192;2022-09-09T02:55:35;13.40;99.90
18103;DHT22;9178;51.120;6.192;2022-09-09T02:58:05;13.30;99.90
18103;DHT22;9178;51.120;6.192;2022-09-09T03:00:35;13.40;99.90
18103;DHT22;9178;51.120;6.192;2022-09-09T03:03:02;13.30;99.90
18103;DHT22;9178;51.120;6.192;2022-09-09T03:05:29;13.30;99.90
18103;DHT22;9178;51.120;6.192;2022-09-09T03:07:57;13.30;99.90
18103;DHT22;9178;51.120;6.192;2022-09-09T03:10:24;13.30;99.90
18103;DHT22;9178;51.120;6.192;2022-09-09T03:12:51;13.30;99.90
18103;DHT22;9178;51.120;6.192;2022-09-09T03:15:18;13.30;99.90
18103;DHT22;9178;51.120;6.192;2022-09-09T03:17:46;13.30;99.90
18103;DHT22;9178;51.120;6.192;2022-09-09T03:20:13;13.30;99.90
18103;DHT22;9178;51.120;6.192;2022-09-09T03:22:40;13.30;99.90
18103;DHT22;9178;51.120;6.192;2022-09-09T03:25:10;13.40;99.90
18103;DHT22;9178;51.120;6.192;2022-09-09T03:27:36;13.40;99.90
18103;DHT22;9178;51.120;6.192;2022-09-09T03:30:04;13.40;99.90
18103;DHT22;9178;51.120;6.192;2022-09-09T03:32:31;13.40;99.90
18103;DHT22;9178;51.120;6.192;2022-09-09T03:34:59;13.40;99.90
18103;DHT22;9178;51.120;6.192;2022-09-09T03:37:26;13.40;99.90
18103;DHT22;9178;51.120;6.192;2022-09-09T03:39:53;13.50;99.90
18103;DHT22;9178;51.120;6.192;2022-09-09T03:42:21;13.50;99.90
18103;DHT22;9178;51.120;6.192;2022-09-09T03:44:48;13.50;99.90
18103;DHT22;9178;51.120;6.192;2022-09-09T03:47:16;13.50;99.90
18103;DHT22;9178;51.120;6.192;2022-09-09T03:49:45;13.60;99.90
18103;DHT22;9178;51.120;6.192;2022-09-09T03:52:13;13.60;99.90
18103;DHT22;9178;51.120;6.192;2022-09-09T03:54:41;13.60;99.90
18103;DHT22;9178;51.120;6.192;2022-09-09T03:57:08;13.60;99.90
18103;DHT22;9178;51.120;6.192;2022-09-09T03:59:35;13.70;99.90
18103;DHT22;9178;51.120;6.192;2022-09-09T04:02:03;13.70;99.90
18103;DHT22;9178;51.120;6.192;2022-09-09T04:04:30;13.70;99.90
18103;DHT22;9178;51.120;6.192;2022-09-09T04:06:56;13.80;99.90
18103;DHT22;9178;51.120;6.192;2022-09-09T04:09:25;13.80;99.90
18103;DHT22;9178;51.120;6.192;2022-09-09T04:11:51;13.80;99.90
18103;DHT22;9178;51.120;6.192;2022-09-09T04:14:19;13.80;99.90
18103;DHT22;9178;51.120;6.192;2022-09-09T04:16:46;13.90;99.90
18103;DHT22;9178;51.120;6.192;2022-09-09T04:19:13;13.90;99.90
18103;DHT22;9178;51.120;6.192;2022-09-09T04:21:40;14.00;99.90
18103;DHT22;9178;51.120;6.192;2022-09-09T04:24:07;14.00;99.90
18103;DHT22;9178;51.120;6.192;2022-09-09T04:26:36;14.00;99.90
18103;DHT22;9178;51.120;6.192;2022-09-09T04:29:04;14.10;99.90
18103;DHT22;9178;51.120;6.192;2022-09-09T04:31:33;14.10;99.90
18103;DHT22;9178;51.120;6.192;2022-09-09T04:34:00;14.10;99.90
18103;DHT22;9178;51.120;6.192;2022-09-09T04:36:30;14.10;99.90
18103;DHT22;9178;51.120;6.192;2022-09-09T04:38:58;14.20;99.90
18103;DHT22;9178;51.120;6.192;2022-09-09T04:41:25;14.20;99.90
18103;DHT22;9178;51.120;6.192;2022-09-09T04:43:53;14.20;99.90
18103;DHT22;9178;51.120;6.192;2022-09-09T04:46:20;14.20;99.90
18103;DHT22;9178;51.120;6.192;2022-09-09T04:48:48;14.20;99.90
18103;DHT22;9178;51.120;6.192;2022-09-09T04:51:15;14.30;99.90
18103;DHT22;9178;51.120;6.192;2022-09-09T04:53:42;14.30;99.90
18103;DHT22;9178;51.120;6.192;2022-09-09T04:56:11;14.30;99.90
18103;DHT22;9178;51.120;6.192;2022-09-09T04:58:38;14.30;99.90
18103;DHT22;9178;51.120;6.192;2022-09-09T05:01:09;14.30;99.90
18103;DHT22;9178;51.120;6.192;2022-09-09T05:03:37;14.30;99.90
18103;DHT22;9178;51.120;6.192;2022-09-09T05:06:08;14.30;99.90
18103;DHT22;9178;51.120;6.192;2022-09-09T05:08:36;14.30;99.90
18103;DHT22;9178;51.120;6.192;2022-09-09T05:11:03;14.30;99.90
18103;DHT22;9178;51.120;6.192;2022-09-09T05:13:30;14.30;99.90
18103;DHT22;9178;51.120;6.192;2022-09-09T05:15:57;14.30;99.90
18103;DHT22;9178;51.120;6.192;2022-09-09T05:18:28;14.30;99.90
18103;DHT22;9178;51.120;6.192;2022-09-09T05:20:58;14.30;99.90
18103;DHT22;9178;51.120;6.192;2022-09-09T05:23:26;14.30;99.90
18103;DHT22;9178;51.120;6.192;2022-09-09T05:25:56;14.30;99.90
18103;DHT22;9178;51.120;6.192;2022-09-09T05:28:24;14.30;99.90
18103;DHT22;9178;51.120;6.192;2022-09-09T05:31:02;14.40;99.90
18103;DHT22;9178;51.120;6.192;2022-09-09T05:33:32;14.40;99.90
18103;DHT22;9178;51.120;6.192;2022-09-09T05:35:59;14.40;99.90
18103;DHT22;9178;51.120;6.192;2022-09-09T05:38:27;14.30;99.90
18103;DHT22;9178;51.120;6.192;2022-09-09T05:40:54;14.40;99.90
18103;DHT22;9178;51.120;6.192;2022-09-09T05:43:22;14.40;99.90
18103;DHT22;9178;51.120;6.192;2022-09-09T05:45:59;14.30;99.90
18103;DHT22;9178;51.120;6.192;2022-09-09T05:48:28;14.40;99.90
18103;DHT22;9178;51.120;6.192;2022-09-09T05:50:58;14.30;99.90
18103;DHT22;9178;51.120;6.192;2022-09-09T05:53:25;14.30;99.90
18103;DHT22;9178;51.120;6.192;2022-09-09T05:55:59;14.30;99.90
18103;DHT22;9178;51.120;6.192;2022-09-09T05:58:25;14.40;99.90
18103;DHT22;9178;51.120;6.192;2022-09-09T06:00:53;14.40;99.90
18103;DHT22;9178;51.120;6.192;2022-09-09T06:03:26;14.40;99.90
18103;DHT22;9178;51.120;6.192;2022-09-09T06:05:58;14.40;99.90
18103;DHT22;9178;51.120;6.192;2022-09-09T06:08:26;14.40;99.90
18103;DHT22;9178;51.120;6.192;2022-09-09T06:10:53;14.40;99.90
18103;DHT22;9178;51.120;6.192;2022-09-09T06:13:19;14.40;99.90
18103;DHT22;9178;51.120;6.192;2022-09-09T06:15:49;14.50;99.90
18103;DHT22;9178;51.120;6.192;2022-09-09T06:18:16;14.50;99.90
18103;DHT22;9178;51.120;6.192;2022-09-09T06:20:52;14.60;99.90
18103;DHT22;9178;51.120;6.192;2022-09-09T06:23:20;14.60;99.90
18103;DHT22;9178;51.120;6.192;2022-09-09T06:25:48;14.60;99.90
18103;DHT22;9178;51.120;6.192;2022-09-09T06:28:14;14.60;99.90
18103;DHT22;9178;51.120;6.192;2022-09-09T06:30:41;14.50;99.90
18103;DHT22;9178;51.120;6.192;2022-09-09T06:33:08;14.50;99.90
18103;DHT22;9178;51.120;6.192;2022-09-09T06:35:35;14.50;99.90
18103;DHT22;9178;51.120;6.192;2022-09-09T06:38:02;14.60;99.90
18103;DHT22;9178;51.120;6.192;2022-09-09T06:40:30;14.50;99.90
18103;DHT22;9178;51.120;6.192;2022-09-09T06:42:59;14.50;99.90
18103;DHT22;9178;51.120;6.192;2022-09-09T06:45:27;14.50;99.90
18103;DHT22;9178;51.120;6.192;2022-09-09T06:47:55;14.50;99.90
18103;DHT22;9178;51.120;6.192;2022-09-09T06:50:22;14.50;99.90
18103;DHT22;9178;51.120;6.192;2022-09-09T06:52:49;14.70;99.90
18103;DHT22;9178;51.120;6.192;2022-09-09T06:55:15;14.70;99.90
18103;DHT22;9178;51.120;6.192;2022-09-09T06:57:45;14.80;99.90
18103;DHT22;9178;51.120;6.192;2022-09-09T07:00:12;14.90;99.90
18103;DHT22;9178;51.120;6.192;2022-09-09T07:02:40;15.00;99.90
18103;DHT22;9178;51.120;6.192;2022-09-09T07:05:07;15.10;99.90
18103;DHT22;9178;51.120;6.192;2022-09-09T07:07:34;15.20;99.90
18103;DHT22;9178;51.120;6.192;2022-09-09T07:10:02;15.30;99.90
18103;DHT22;9178;51.120;6.192;2022-09-09T07:12:30;15.40;99.90
18103;DHT22;9178;51.120;6.192;2022-09-09T07:14:58;15.40;99.90
18103;DHT22;9178;51.120;6.192;2022-09-09T07:17:25;15.50;99.90
18103;DHT22;9178;51.120;6.192;2022-09-09T07:19:53;15.50;99.90
18103;DHT22;9178;51.120;6.192;2022-09-09T07:22:20;15.50;99.90
18103;DHT22;9178;51.120;6.192;2022-09-09T07:24:48;15.60;99.90
18103;DHT22;9178;51.120;6.192;2022-09-09T07:27:15;15.60;99.90
18103;DHT22;9178;51.120;6.192;2022-09-09T07:29:42;15.60;99.90
18103;DHT22;9178;51.120;6.192;2022-09-09T07:32:13;15.70;99.90
18103;DHT22;9178;51.120;6.192;2022-09-09T07:34:40;15.70;99.90
18103;DHT22;9178;51.120;6.192;2022-09-09T07:37:08;15.80;99.90
18103;DHT22;9178;51.120;6.192;2022-09-09T07:39:37;16.10;99.90
18103;DHT22;9178;51.120;6.192;2022-09-09T07:42:04;16.40;99.90
18103;DHT22;9178;51.120;6.192;2022-09-09T07:44:31;16.50;99.90
18103;DHT22;9178;51.120;6.192;2022-09-09T07:47:00;16.90;99.90
18103;DHT22;9178;51.120;6.192;2022-09-09T07:49:28;17.10;99.90
18103;DHT22;9178;51.120;6.192;2022-09-09T07:51:55;17.10;99.90
18103;DHT22;9178;51.120;6.192;2022-09-09T07:54:22;17.10;99.90
18103;DHT22;9178;51.120;6.192;2022-09-09T07:56:49;17.10;99.90
18103;DHT22;9178;51.120;6.192;2022-09-09T07:59:17;17.10;99.90
18103;DHT22;9178;51.120;6.192;2022-09-09T08:01:46;17.00;99.90
18103;DHT22;9178;51.120;6.192;2022-09-09T08:04:14;16.90;99.90
18103;DHT22;9178;51.120;6.192;2022-09-09T08:06:45;16.80;99.90
18103;DHT22;9178;51.120;6.192;2022-09-09T08:09:13;16.90;99.90
18103;DHT22;9178;51.120;6.192;2022-09-09T08:11:40;16.80;99.90
18103;DHT22;9178;51.120;6.192;2022-09-09T08:14:08;16.80;99.90
18103;DHT22;9178;51.120;6.192;2022-09-09T08:16:41;16.80;99.90
18103;DHT22;9178;51.120;6.192;2022-09-09T08:19:09;16.90;99.90
18103;DHT22;9178;51.120;6.192;2022-09-09T08:21:37;16.90;99.90
18103;DHT22;9178;51.120;6.192;2022-09-09T08:24:08;16.90;99.90
18103;DHT22;9178;51.120;6.192;2022-09-09T08:26:38;17.00;99.90
18103;DHT22;9178;51.120;6.192;2022-09-09T08:29:08;17.00;99.90
18103;DHT22;9178;51.120;6.192;2022-09-09T08:31:37;17.10;99.90
18103;DHT22;9178;51.120;6.192;2022-09-09T08:34:05;17.30;99.90
18103;DHT22;9178;51.120;6.192;2022-09-09T08:36:35;17.30;99.90
18103;DHT22;9178;51.120;6.192;2022-09-09T08:39:04;17.40;99.90
18103;DHT22;9178;51.120;6.192;2022-09-09T08:41:46;17.40;99.90
18103;DHT22;9178;51.120;6.192;2022-09-09T08:44:22;17.30;99.90
18103;DHT22;9178;51.120;6.192;2022-09-09T08:46:59;17.20;99.90
18103;DHT22;9178;51.120;6.192;2022-09-09T08:49:48;17.20;99.90
18103;DHT22;9178;51.120;6.192;2022-09-09T08:52:22;17.10;99.90
18103;DHT22;9178;51.120;6.192;2022-09-09T08:54:50;17.10;99.90
18103;DHT22;9178;51.120;6.192;2022-09-09T08:57:25;17.20;99.90
18103;DHT22;9178;51.120;6.192;2022-09-09T08:59:53;17.20;99.90
18103;DHT22;9178;51.120;6.192;2022-09-09T09:02:26;17.20;99.90
18103;DHT22;9178;51.120;6.192;2022-09-09T09:05:11;17.20;99.90
18103;DHT22;9178;51.120;6.192;2022-09-09T09:07:51;17.30;99.90
18103;DHT22;9178;51.120;6.192;2022-09-09T09:10:39;17.40;99.90
18103;DHT22;9178;51.120;6.192;2022-09-09T09:13:14;17.50;99.90
18103;DHT22;9178;51.120;6.192;2022-09-09T09:15:43;17.60;99.90
18103;DHT22;9178;51.120;6.192;2022-09-09T09:18:13;17.70;99.90
18103;DHT22;9178;51.120;6.192;2022-09-09T09:20:50;17.80;99.90
18103;DHT22;9178;51.120;6.192;2022-09-09T09:23:22;17.80;99.90
18103;DHT22;9178;51.120;6.192;2022-09-09T09:25:50;17.90;99.90
18103;DHT22;9178;51.120;6.192;2022-09-09T09:28:23;17.90;99.90
18103;DHT22;9178;51.120;6.192;2022-09-09T09:30:54;18.10;99.90
18103;DHT22;9178;51.120;6.192;2022-09-09T09:33:25;18.20;99.90
18103;DHT22;9178;51.120;6.192;2022-09-09T09:35:53;18.30;99.90
18103;DHT22;9178;51.120;6.192;2022-09-09T09:38:22;18.40;99.90
18103;DHT22;9178;51.120;6.192;2022-09-09T09:40:51;18.40;99.90
18103;DHT22;9178;51.120;6.192;2022-09-09T09:43:24;18.40;99.90
18103;DHT22;9178;51.120;6.192;2022-09-09T09:45:53;18.30;99.90
18103;DHT22;9178;51.120;6.192;2022-09-09T09:48:19;18.30;99.90
18103;DHT22;9178;51.120;6.192;2022-09-09T09:50:49;18.30;99.90
18103;DHT22;9178;51.120;6.192;2022-09-09T09:53:20;18.40;99.90
18103;DHT22;9178;51.120;6.192;2022-09-09T09:55:53;18.50;99.90
18103;DHT22;9178;51.120;6.192;2022-09-09T09:58:22;18.50;99.90
18103;DHT22;9178;51.120;6.192;2022-09-09T10:00:51;18.60;99.90
18103;DHT22;9178;51.120;6.192;2022-09-09T10:03:24;18.70;99.90
18103;DHT22;9178;51.120;6.192;2022-09-09T10:05:52;18.70;99.90
18103;DHT22;9178;51.120;6.192;2022-09-09T10:08:19;18.80;99.90
18103;DHT22;9178;51.120;6.192;2022-09-09T10:11:01;18.70;99.90
18103;DHT22;9178;51.120;6.192;2022-09-09T10:13:39;18.70;99.90
18103;DHT22;9178;51.120;6.192;2022-09-09T10:16:26;18.50;99.90
18103;DHT22;9178;51.120;6.192;2022-09-09T10:18:59;18.50;99.90
18103;DHT22;9178;51.120;6.192;2022-09-09T10:21:46;18.50;99.90
18103;DHT22;9178;51.120;6.192;2022-09-09T10:27:38;18.50;99.90
18103;DHT22;9178;51.120;6.192;2022-09-09T10:30:14;18.50;99.90
18103;DHT22;9178;51.120;6.192;2022-09-09T10:33:00;18.60;99.90
18103;DHT22;9178;51.120;6.192;2022-09-09T10:35:30;18.60;99.90
18103;DHT22;9178;51.120;6.192;2022-09-09T10:38:16;18.60;99.90
18103;DHT22;9178;51.120;6.192;2022-09-09T10:43:43;18.70;99.90
18103;DHT22;9178;51.120;6.192;2022-09-09T10:46:19;18.70;99.90
18103;DHT22;9178;51.120;6.192;2022-09-09T10:49:01;18.70;99.90
18103;DHT22;9178;51.120;6.192;2022-09-09T10:51:38;18.80;99.90
18103;DHT22;9178;51.120;6.192;2022-09-09T10:54:19;19.00;99.90
18103;DHT22;9178;51.120;6.192;2022-09-09T10:56:52;19.30;99.90
18103;DHT22;9178;51.120;6.192;2022-09-09T10:59:25;19.40;99.90
18103;DHT22;9178;51.120;6.192;2022-09-09T11:01:58;19.60;99.90
18103;DHT22;9178;51.120;6.192;2022-09-09T11:04:29;19.60;99.90
18103;DHT22;9178;51.120;6.192;2022-09-09T11:07:00;19.60;99.90
18103;DHT22;9178;51.120;6.192;2022-09-09T11:09:35;19.60;99.90
18103;DHT22;9178;51.120;6.192;2022-09-09T11:12:03;19.70;99.90
18103;DHT22;9178;51.120;6.192;2022-09-09T11:14:34;19.80;99.90
18103;DHT22;9178;51.120;6.192;2022-09-09T11:17:08;19.90;99.90
18103;DHT22;9178;51.120;6.192;2022-09-09T11:19:39;20.00;99.90
18103;DHT22;9178;51.120;6.192;2022-09-09T11:22:07;20.20;99.90
18103;DHT22;9178;51.120;6.192;2022-09-09T11:24:43;20.30;99.90
18103;DHT22;9178;51.120;6.192;2022-09-09T11:27:15;20.30;99.90
18103;DHT22;9178;51.120;6.192;2022-09-09T11:33:15;20.10;99.90
18103;DHT22;9178;51.120;6.192;2022-09-09T11:35:57;20.00;99.90
18103;DHT22;9178;51.120;6.192;2022-09-09T11:38:28;19.80;99.90
18103;DHT22;9178;51.120;6.192;2022-09-09T11:41:00;19.80;99.90
18103;DHT22;9178;51.120;6.192;2022-09-09T11:43:32;19.60;99.90
18103;DHT22;9178;51.120;6.192;2022-09-09T11:46:02;19.50;99.90
18103;DHT22;9178;51.120;6.192;2022-09-09T11:48:32;19.50;99.90
18103;DHT22;9178;51.120;6.192;2022-09-09T11:51:05;19.50;99.90
18103;DHT22;9178;51.120;6.192;2022-09-09T11:53:34;19.50;99.90
18103;DHT22;9178;51.120;6.192;2022-09-09T11:56:12;19.50;99.90
18103;DHT22;9178;51.120;6.192;2022-09-09T11:58:43;19.50;99.90
18103;DHT22;9178;51.120;6.192;2022-09-09T12:01:34;19.40;99.90
18103;DHT22;9178;51.120;6.192;2022-09-09T12:06:55;19.40;99.90
18103;DHT22;9178;51.120;6.192;2022-09-09T12:09:32;19.40;99.90
18103;DHT22;9178;51.120;6.192;2022-09-09T12:12:07;19.40;99.90
18103;DHT22;9178;51.120;6.192;2022-09-09T12:14:37;19.50;99.90
18103;DHT22;9178;51.120;6.192;2022-09-09T12:17:18;19.50;99.90
18103;DHT22;9178;51.120;6.192;2022-09-09T12:19:47;19.40;99.90
18103;DHT22;9178;51.120;6.192;2022-09-09T12:22:27;19.40;99.90
18103;DHT22;9178;51.120;6.192;2022-09-09T12:25:06;19.40;99.90
18103;DHT22;9178;51.120;6.192;2022-09-09T12:27:40;19.40;99.90
18103;DHT22;9178;51.120;6.192;2022-09-09T12:30:12;19.30;99.90
18103;DHT22;9178;51.120;6.192;2022-09-09T12:32:41;19.20;99.90
18103;DHT22;9178;51.120;6.192;2022-09-09T12:35:13;19.20;99.90
18103;DHT22;9178;51.120;6.192;2022-09-09T12:37:49;19.20;99.90
18103;DHT22;9178;51.120;6.192;2022-09-09T12:40:20;19.40;99.90
18103;DHT22;9178;51.120;6.192;2022-09-09T12:42:50;19.40;99.90
18103;DHT22;9178;51.120;6.192;2022-09-09T12:45:20;19.50;99.90
18103;DHT22;9178;51.120;6.192;2022-09-09T12:47:50;19.70;99.90
18103;DHT22;9178;51.120;6.192;2022-09-09T12:50:22;19.90;99.90
18103;DHT22;9178;51.120;6.192;2022-09-09T12:52:52;20.00;99.90
18103;DHT22;9178;51.120;6.192;2022-09-09T12:55:24;20.10;99.90
18103;DHT22;9178;51.120;6.192;2022-09-09T12:57:53;20.30;99.90
18103;DHT22;9178;51.120;6.192;2022-09-09T13:00:24;20.30;99.90
18103;DHT22;9178;51.120;6.192;2022-09-09T13:02:53;20.30;99.90
18103;DHT22;9178;51.120;6.192;2022-09-09T13:05:25;20.30;99.90
18103;DHT22;9178;51.120;6.192;2022-09-09T13:08:00;20.50;99.90
18103;DHT22;9178;51.120;6.192;2022-09-09T13:10:30;20.50;99.90
18103;DHT22;9178;51.120;6.192;2022-09-09T13:12:58;20.50;99.90
18103;DHT22;9178;51.120;6.192;2022-09-09T13:15:28;20.40;99.90
18103;DHT22;9178;51.120;6.192;2022-09-09T13:17:56;20.20;99.90
18103;DHT22;9178;51.120;6.192;2022-09-09T13:20:28;20.10;99.90
18103;DHT22;9178;51.120;6.192;2022-09-09T13:22:56;20.00;99.90
18103;DHT22;9178;51.120;6.192;2022-09-09T13:25:26;19.80;99.90
18103;DHT22;9178;51.120;6.192;2022-09-09T13:27:58;19.80;99.90
18103;DHT22;9178;51.120;6.192;2022-09-09T13:30:28;19.80;99.90
18103;DHT22;9178;51.120;6.192;2022-09-09T13:33:19;19.70;99.90
18103;DHT22;9178;51.120;6.192;2022-09-09T13:35:51;19.60;99.90
18103;DHT22;9178;51.120;6.192;2022-09-09T13:38:20;19.40;99.90
18103;DHT22;9178;51.120;6.192;2022-09-09T13:40:56;19.00;99.90
18103;DHT22;9178;51.120;6.192;2022-09-09T13:43:25;18.50;99.90
18103;DHT22;9178;51.120;6.192;2022-09-09T13:45:54;18.10;99.90
18103;DHT22;9178;51.120;6.192;2022-09-09T13:48:22;17.70;99.90
18103;DHT22;9178;51.120;6.192;2022-09-09T13:50:56;17.50;99.90
18103;DHT22;9178;51.120;6.192;2022-09-09T13:53:23;17.30;99.90
18103;DHT22;9178;51.120;6.192;2022-09-09T13:55:53;17.30;99.90
18103;DHT22;9178;51.120;6.192;2022-09-09T13:58:20;17.20;99.90
18103;DHT22;9178;51.120;6.192;2022-09-09T14:00:48;17.10;99.90
18103;DHT22;9178;51.120;6.192;2022-09-09T14:03:15;17.10;99.90
18103;DHT22;9178;51.120;6.192;2022-09-09T14:05:43;16.90;99.90
18103;DHT22;9178;51.120;6.192;2022-09-09T14:08:18;16.80;99.90
18103;DHT22;9178;51.120;6.192;2022-09-09T14:10:46;16.70;99.90
18103;DHT22;9178;51.120;6.192;2022-09-09T14:13:13;16.60;99.90
18103;DHT22;9178;51.120;6.192;2022-09-09T14:15:41;16.50;99.90
18103;DHT22;9178;51.120;6.192;2022-09-09T14:18:11;16.50;99.90
18103;DHT22;9178;51.120;6.192;2022-09-09T14:20:38;16.50;99.90
18103;DHT22;9178;51.120;6.192;2022-09-09T14:23:05;16.50;99.90
18103;DHT22;9178;51.120;6.192;2022-09-09T14:25:33;16.60;99.90
18103;DHT22;9178;51.120;6.192;2022-09-09T14:28:00;16.70;99.90
18103;DHT22;9178;51.120;6.192;2022-09-09T14:30:29;16.70;99.90
18103;DHT22;9178;51.120;6.192;2022-09-09T14:32:57;16.80;99.90
18103;DHT22;9178;51.120;6.192;2022-09-09T14:35:24;17.00;99.90
18103;DHT22;9178;51.120;6.192;2022-09-09T14:37:51;17.10;99.90
18103;DHT22;9178;51.120;6.192;2022-09-09T14:40:17;17.20;99.90
18103;DHT22;9178;51.120;6.192;2022-09-09T14:42:45;17.40;99.90
18103;DHT22;9178;51.120;6.192;2022-09-09T14:45:12;17.70;99.90
18103;DHT22;9178;51.120;6.192;2022-09-09T14:47:39;17.80;99.90
18103;DHT22;9178;51.120;6.192;2022-09-09T14:50:07;18.10;99.90
18103;DHT22;9178;51.120;6.192;2022-09-09T14:52:36;18.30;99.90
18103;DHT22;9178;51.120;6.192;2022-09-09T14:55:04;18.50;99.90
18103;DHT22;9178;51.120;6.192;2022-09-09T14:57:31;18.70;99.90
18103;DHT22;9178;51.120;6.192;2022-09-09T14:59:59;18.70;99.90
18103;DHT22;9178;51.120;6.192;2022-09-09T15:02:26;18.90;99.90
18103;DHT22;9178;51.120;6.192;2022-09-09T15:04:53;18.90;99.90
18103;DHT22;9178;51.120;6.192;2022-09-09T15:07:22;19.00;99.90
18103;DHT22;9178;51.120;6.192;2022-09-09T15:09:49;19.00;99.90
18103;DHT22;9178;51.120;6.192;2022-09-09T15:12:18;19.10;99.90
18103;DHT22;9178;51.120;6.192;2022-09-09T15:14:46;19.10;99.90
18103;DHT22;9178;51.120;6.192;2022-09-09T15:17:15;19.20;99.90
18103;DHT22;9178;51.120;6.192;2022-09-09T15:19:41;19.40;99.90
18103;DHT22;9178;51.120;6.192;2022-09-09T15:22:08;19.40;99.90
18103;DHT22;9178;51.120;6.192;2022-09-09T15:24:35;19.30;99.90
18103;DHT22;9178;51.120;6.192;2022-09-09T15:27:02;19.30;99.90
18103;DHT22;9178;51.120;6.192;2022-09-09T15:29:29;19.30;99.90
18103;DHT22;9178;51.120;6.192;2022-09-09T15:31:56;19.30;99.90
18103;DHT22;9178;51.120;6.192;2022-09-09T15:34:24;19.30;99.90
18103;DHT22;9178;51.120;6.192;2022-09-09T15:36:51;19.20;99.90
18103;DHT22;9178;51.120;6.192;2022-09-09T15:39:19;19.00;99.90
18103;DHT22;9178;51.120;6.192;2022-09-09T15:41:47;18.90;99.90
18103;DHT22;9178;51.120;6.192;2022-09-09T15:44:14;18.80;99.90
18103;DHT22;9178;51.120;6.192;2022-09-09T15:46:43;18.70;99.90
18103;DHT22;9178;51.120;6.192;2022-09-09T15:49:11;18.70;99.90
18103;DHT22;9178;51.120;6.192;2022-09-09T15:51:41;18.70;99.90
18103;DHT22;9178;51.120;6.192;2022-09-09T15:54:09;18.80;99.90
18103;DHT22;9178;51.120;6.192;2022-09-09T15:56:37;18.70;99.90
18103;DHT22;9178;51.120;6.192;2022-09-09T15:59:04;18.80;99.90
18103;DHT22;9178;51.120;6.192;2022-09-09T16:01:33;18.70;99.90
18103;DHT22;9178;51.120;6.192;2022-09-09T16:04:00;18.70;99.90
18103;DHT22;9178;51.120;6.192;2022-09-09T16:06:29;18.60;99.90
18103;DHT22;9178;51.120;6.192;2022-09-09T16:08:58;18.70;99.90
18103;DHT22;9178;51.120;6.192;2022-09-09T16:11:27;18.60;99.90
18103;DHT22;9178;51.120;6.192;2022-09-09T16:13:57;18.60;99.90
18103;DHT22;9178;51.120;6.192;2022-09-09T16:16:26;18.70;99.90
18103;DHT22;9178;51.120;6.192;2022-09-09T16:18:55;18.70;99.90
18103;DHT22;9178;51.120;6.192;2022-09-09T16:21:24;18.70;99.90